sensor_id;sensor_type;location;lat;lon;timestamp;P1;durP1;ratioP1;P2;durP2;ratioP2
12302;SDS011;6214;48.012;7.862;2022-10-12T00:02:20;14.88;;;4.00;;
12302;SDS011;6214;48.012;7.862;2022-10-12T00:04:47;15.68;;;4.07;;
12302;SDS011;6214;48.012;7.862;2022-10-12T00:07:14;15.38;;;4.00;;
12302;SDS011;6214;48.012;7.862;2022-10-12T00:09:40;17.67;;;3.80;;
12302;SDS011;6214;48.012;7.862;2022-10-12T00:12:07;15.27;;;4.00;;
12302;SDS011;6214;48.012;7.862;2022-10-12T00:14:35;15.77;;;4.00;;
12302;SDS011;6214;48.012;7.862;2022-10-12T00:17:02;15.90;;;4.00;;
12302;SDS011;6214;48.012;7.862;2022-10-12T00:19:29;16.50;;;3.92;;
12302;SDS011;6214;48.012;7.862;2022-10-12T00:21:56;16.42;;;3.75;;
12302;SDS011;6214;48.012;7.862;2022-10-12T00:24:23;14.00;;;3.20;;
12302;SDS011;6214;48.012;7.862;2022-10-12T00:26:50;16.10;;;3.85;;
12302;SDS011;6214;48.012;7.862;2022-10-12T00:29:17;16.67;;;3.63;;
12302;SDS011;6214;48.012;7.862;2022-10-12T00:31:44;13.20;;;3.35;;
12302;SDS011;6214;48.012;7.862;2022-10-12T00:34:11;14.77;;;3.10;;
12302;SDS011;6214;48.012;7.862;2022-10-12T00:36:38;16.65;;;3.63;;
12302;SDS011;6214;48.012;7.862;2022-10-12T00:39:06;14.18;;;3.78;;
12302;SDS011;6214;48.012;7.862;2022-10-12T00:41:36;13.07;;;3.40;;
12302;SDS011;6214;48.012;7.862;2022-10-12T00:47:02;13.00;;;3.30;;
12302;SDS011;6214;48.012;7.862;2022-10-12T00:49:44;14.05;;;3.00;;
12302;SDS011;6214;48.012;7.862;2022-10-12T00:52:14;15.63;;;2.92;;
12302;SDS011;6214;48.012;7.862;2022-10-12T00:54:46;15.35;;;3.70;;
12302;SDS011;6214;48.012;7.862;2022-10-12T00:57:16;14.00;;;2.90;;
12302;SDS011;6214;48.012;7.862;2022-10-12T00:59:49;15.75;;;3.20;;
12302;SDS011;6214;48.012;7.862;2022-10-12T01:02:21;13.15;;;3.15;;
12302;SDS011;6214;48.012;7.862;2022-10-12T01:04:51;15.52;;;3.05;;
12302;SDS011;6214;48.012;7.862;2022-10-12T01:07:18;13.93;;;3.13;;
12302;SDS011;6214;48.012;7.862;2022-10-12T01:09:45;14.27;;;3.27;;
12302;SDS011;6214;48.012;7.862;2022-10-12T01:12:12;14.20;;;3.30;;
12302;SDS011;6214;48.012;7.862;2022-10-12T01:14:40;13.80;;;3.20;;
12302;SDS011;6214;48.012;7.862;2022-10-12T01:22:06;13.20;;;3.00;;
12302;SDS011;6214;48.012;7.862;2022-10-12T01:27:48;14.50;;;3.00;;
12302;SDS011;6214;48.012;7.862;2022-10-12T01:30:21;13.05;;;2.90;;
12302;SDS011;6214;48.012;7.862;2022-10-12T01:35:36;14.43;;;2.83;;
12302;SDS011;6214;48.012;7.862;2022-10-12T01:40:56;14.05;;;2.80;;
12302;SDS011;6214;48.012;7.862;2022-10-12T01:43:40;14.95;;;3.13;;
12302;SDS011;6214;48.012;7.862;2022-10-12T01:48:38;15.38;;;3.17;;
12302;SDS011;6214;48.012;7.862;2022-10-12T01:51:06;14.95;;;3.20;;
12302;SDS011;6214;48.012;7.862;2022-10-12T01:53:43;15.40;;;3.15;;
12302;SDS011;6214;48.012;7.862;2022-10-12T01:56:27;16.48;;;2.75;;
12302;SDS011;6214;48.012;7.862;2022-10-12T01:58:59;14.80;;;3.20;;
12302;SDS011;6214;48.012;7.862;2022-10-12T02:01:42;13.00;;;2.83;;
12302;SDS011;6214;48.012;7.862;2022-10-12T02:04:29;15.27;;;3.40;;
12302;SDS011;6214;48.012;7.862;2022-10-12T02:06:59;14.98;;;3.20;;
12302;SDS011;6214;48.012;7.862;2022-10-12T02:09:34;17.00;;;3.20;;
12302;SDS011;6214;48.012;7.862;2022-10-12T02:12:07;14.23;;;2.80;;
12302;SDS011;6214;48.012;7.862;2022-10-12T02:14:44;14.27;;;3.10;;
12302;SDS011;6214;48.012;7.862;2022-10-12T02:17:14;14.95;;;2.80;;
12302;SDS011;6214;48.012;7.862;2022-10-12T02:19:44;15.53;;;3.20;;
12302;SDS011;6214;48.012;7.862;2022-10-12T02:22:25;13.00;;;2.90;;
12302;SDS011;6214;48.012;7.862;2022-10-12T02:24:59;13.48;;;3.10;;
12302;SDS011;6214;48.012;7.862;2022-10-12T02:27:33;16.35;;;3.10;;
12302;SDS011;6214;48.012;7.862;2022-10-12T02:30:04;15.95;;;3.17;;
12302;SDS011;6214;48.012;7.862;2022-10-12T02:35:19;14.35;;;3.00;;
12302;SDS011;6214;48.012;7.862;2022-10-12T02:40:52;13.98;;;3.30;;
12302;SDS011;6214;48.012;7.862;2022-10-12T02:43:24;13.05;;;2.55;;
12302;SDS011;6214;48.012;7.862;2022-10-12T02:46:17;14.13;;;2.78;;
12302;SDS011;6214;48.012;7.862;2022-10-12T02:48:46;14.90;;;3.10;;
12302;SDS011;6214;48.012;7.862;2022-10-12T02:51:14;14.67;;;3.23;;
12302;SDS011;6214;48.012;7.862;2022-10-12T02:53:42;16.10;;;3.05;;
12302;SDS011;6214;48.012;7.862;2022-10-12T02:56:11;15.35;;;3.30;;
12302;SDS011;6214;48.012;7.862;2022-10-12T02:58:42;14.57;;;2.88;;
12302;SDS011;6214;48.012;7.862;2022-10-12T03:01:11;15.68;;;3.45;;
12302;SDS011;6214;48.012;7.862;2022-10-12T03:03:38;14.50;;;2.80;;
12302;SDS011;6214;48.012;7.862;2022-10-12T03:06:06;14.40;;;3.38;;
12302;SDS011;6214;48.012;7.862;2022-10-12T03:08:33;13.30;;;2.97;;
12302;SDS011;6214;48.012;7.862;2022-10-12T03:11:03;14.10;;;2.97;;
12302;SDS011;6214;48.012;7.862;2022-10-12T03:13:32;15.00;;;3.00;;
12302;SDS011;6214;48.012;7.862;2022-10-12T03:16:00;14.38;;;3.20;;
12302;SDS011;6214;48.012;7.862;2022-10-12T03:18:28;13.25;;;2.90;;
12302;SDS011;6214;48.012;7.862;2022-10-12T03:20:55;15.82;;;3.20;;
12302;SDS011;6214;48.012;7.862;2022-10-12T03:23:22;15.20;;;3.20;;
12302;SDS011;6214;48.012;7.862;2022-10-12T03:25:49;12.93;;;2.92;;
12302;SDS011;6214;48.012;7.862;2022-10-12T03:28:16;15.20;;;2.95;;
12302;SDS011;6214;48.012;7.862;2022-10-12T03:30:43;14.30;;;2.70;;
12302;SDS011;6214;48.012;7.862;2022-10-12T03:33:11;13.88;;;2.70;;
12302;SDS011;6214;48.012;7.862;2022-10-12T03:35:38;13.52;;;2.72;;
12302;SDS011;6214;48.012;7.862;2022-10-12T03:38:05;14.57;;;4.65;;
12302;SDS011;6214;48.012;7.862;2022-10-12T03:40:32;17.60;;;5.03;;
12302;SDS011;6214;48.012;7.862;2022-10-12T03:43:00;13.85;;;3.55;;
12302;SDS011;6214;48.012;7.862;2022-10-12T03:45:28;18.05;;;7.57;;
12302;SDS011;6214;48.012;7.862;2022-10-12T03:47:55;17.10;;;8.80;;
12302;SDS011;6214;48.012;7.862;2022-10-12T03:50:27;18.15;;;9.20;;
12302;SDS011;6214;48.012;7.862;2022-10-12T03:52:54;18.83;;;9.88;;
12302;SDS011;6214;48.012;7.862;2022-10-12T03:55:21;19.60;;;9.73;;
12302;SDS011;6214;48.012;7.862;2022-10-12T03:57:49;19.42;;;9.75;;
12302;SDS011;6214;48.012;7.862;2022-10-12T04:00:15;18.60;;;10.00;;
12302;SDS011;6214;48.012;7.862;2022-10-12T04:02:43;19.93;;;9.93;;
12302;SDS011;6214;48.012;7.862;2022-10-12T04:05:09;19.17;;;10.35;;
12302;SDS011;6214;48.012;7.862;2022-10-12T04:07:36;19.30;;;10.67;;
12302;SDS011;6214;48.012;7.862;2022-10-12T04:10:04;20.30;;;10.02;;
12302;SDS011;6214;48.012;7.862;2022-10-12T04:12:32;19.33;;;9.75;;
12302;SDS011;6214;48.012;7.862;2022-10-12T04:14:59;18.83;;;10.20;;
12302;SDS011;6214;48.012;7.862;2022-10-12T04:17:26;18.98;;;10.70;;
12302;SDS011;6214;48.012;7.862;2022-10-12T04:19:52;22.20;;;10.50;;
12302;SDS011;6214;48.012;7.862;2022-10-12T04:22:19;18.90;;;10.20;;
12302;SDS011;6214;48.012;7.862;2022-10-12T04:24:47;20.60;;;10.27;;
12302;SDS011;6214;48.012;7.862;2022-10-12T04:27:14;18.42;;;10.10;;
12302;SDS011;6214;48.012;7.862;2022-10-12T04:29:41;19.20;;;10.10;;
12302;SDS011;6214;48.012;7.862;2022-10-12T04:32:08;17.75;;;9.20;;
12302;SDS011;6214;48.012;7.862;2022-10-12T04:34:38;19.33;;;10.23;;
12302;SDS011;6214;48.012;7.862;2022-10-12T04:37:05;20.65;;;10.77;;
12302;SDS011;6214;48.012;7.862;2022-10-12T04:39:31;20.23;;;10.02;;
12302;SDS011;6214;48.012;7.862;2022-10-12T04:41:58;19.40;;;9.88;;
12302;SDS011;6214;48.012;7.862;2022-10-12T04:44:25;18.13;;;9.60;;
12302;SDS011;6214;48.012;7.862;2022-10-12T04:46:57;19.30;;;10.35;;
12302;SDS011;6214;48.012;7.862;2022-10-12T04:49:25;19.55;;;9.40;;
12302;SDS011;6214;48.012;7.862;2022-10-12T04:51:52;18.47;;;10.00;;
12302;SDS011;6214;48.012;7.862;2022-10-12T04:54:18;19.23;;;9.70;;
12302;SDS011;6214;48.012;7.862;2022-10-12T04:56:45;19.33;;;9.85;;
12302;SDS011;6214;48.012;7.862;2022-10-12T04:59:13;19.17;;;10.00;;
12302;SDS011;6214;48.012;7.862;2022-10-12T05:01:40;17.65;;;9.10;;
12302;SDS011;6214;48.012;7.862;2022-10-12T05:04:08;19.50;;;10.15;;
12302;SDS011;6214;48.012;7.862;2022-10-12T05:06:35;16.60;;;9.27;;
12302;SDS011;6214;48.012;7.862;2022-10-12T05:09:02;20.88;;;9.70;;
12302;SDS011;6214;48.012;7.862;2022-10-12T05:11:28;16.55;;;8.80;;
12302;SDS011;6214;48.012;7.862;2022-10-12T05:13:55;19.35;;;10.18;;
12302;SDS011;6214;48.012;7.862;2022-10-12T05:16:23;17.50;;;9.30;;
12302;SDS011;6214;48.012;7.862;2022-10-12T05:18:50;20.15;;;9.80;;
12302;SDS011;6214;48.012;7.862;2022-10-12T05:21:17;16.73;;;8.93;;
12302;SDS011;6214;48.012;7.862;2022-10-12T05:23:44;18.57;;;9.37;;
12302;SDS011;6214;48.012;7.862;2022-10-12T05:26:16;19.80;;;9.90;;
12302;SDS011;6214;48.012;7.862;2022-10-12T05:28:43;17.67;;;9.27;;
12302;SDS011;6214;48.012;7.862;2022-10-12T05:31:10;18.85;;;8.90;;
12302;SDS011;6214;48.012;7.862;2022-10-12T05:33:37;19.65;;;9.70;;
12302;SDS011;6214;48.012;7.862;2022-10-12T05:36:04;21.35;;;8.05;;
12302;SDS011;6214;48.012;7.862;2022-10-12T05:38:32;16.83;;;7.55;;
12302;SDS011;6214;48.012;7.862;2022-10-12T05:40:59;20.55;;;8.60;;
12302;SDS011;6214;48.012;7.862;2022-10-12T05:43:26;19.00;;;8.20;;
12302;SDS011;6214;48.012;7.862;2022-10-12T05:45:53;20.67;;;9.00;;
12302;SDS011;6214;48.012;7.862;2022-10-12T05:48:20;18.13;;;8.10;;
12302;SDS011;6214;48.012;7.862;2022-10-12T05:50:50;18.92;;;8.77;;
12302;SDS011;6214;48.012;7.862;2022-10-12T05:53:19;19.30;;;8.05;;
12302;SDS011;6214;48.012;7.862;2022-10-12T05:55:56;19.50;;;8.73;;
12302;SDS011;6214;48.012;7.862;2022-10-12T05:58:25;18.40;;;8.60;;
12302;SDS011;6214;48.012;7.862;2022-10-12T06:00:54;17.83;;;8.80;;
12302;SDS011;6214;48.012;7.862;2022-10-12T06:03:29;16.60;;;7.90;;
12302;SDS011;6214;48.012;7.862;2022-10-12T06:06:00;17.77;;;8.15;;
12302;SDS011;6214;48.012;7.862;2022-10-12T06:08:29;18.13;;;8.00;;
12302;SDS011;6214;48.012;7.862;2022-10-12T06:10:56;19.25;;;9.00;;
12302;SDS011;6214;48.012;7.862;2022-10-12T06:13:23;19.83;;;9.82;;
12302;SDS011;6214;48.012;7.862;2022-10-12T06:15:50;20.80;;;9.68;;
12302;SDS011;6214;48.012;7.862;2022-10-12T06:18:18;19.50;;;9.80;;
12302;SDS011;6214;48.012;7.862;2022-10-12T06:20:48;19.77;;;9.15;;
12302;SDS011;6214;48.012;7.862;2022-10-12T06:23:37;17.73;;;8.98;;
12302;SDS011;6214;48.012;7.862;2022-10-12T06:26:04;17.70;;;8.48;;
12302;SDS011;6214;48.012;7.862;2022-10-12T06:28:31;18.15;;;8.40;;
12302;SDS011;6214;48.012;7.862;2022-10-12T06:30:58;19.35;;;9.07;;
12302;SDS011;6214;48.012;7.862;2022-10-12T06:33:26;17.67;;;8.80;;
12302;SDS011;6214;48.012;7.862;2022-10-12T06:35:53;19.05;;;8.25;;
12302;SDS011;6214;48.012;7.862;2022-10-12T06:38:21;17.10;;;8.00;;
12302;SDS011;6214;48.012;7.862;2022-10-12T06:40:48;16.05;;;8.10;;
12302;SDS011;6214;48.012;7.862;2022-10-12T06:43:15;17.17;;;8.25;;
12302;SDS011;6214;48.012;7.862;2022-10-12T06:45:42;15.45;;;7.50;;
12302;SDS011;6214;48.012;7.862;2022-10-12T06:48:09;17.60;;;7.50;;
12302;SDS011;6214;48.012;7.862;2022-10-12T06:50:43;16.30;;;7.40;;
12302;SDS011;6214;48.012;7.862;2022-10-12T06:53:11;17.70;;;7.70;;
12302;SDS011;6214;48.012;7.862;2022-10-12T06:55:38;16.75;;;7.40;;
12302;SDS011;6214;48.012;7.862;2022-10-12T06:58:06;18.63;;;7.35;;
12302;SDS011;6214;48.012;7.862;2022-10-12T07:00:36;16.35;;;7.25;;
12302;SDS011;6214;48.012;7.862;2022-10-12T07:03:03;17.17;;;7.32;;
12302;SDS011;6214;48.012;7.862;2022-10-12T07:05:31;16.67;;;6.88;;
12302;SDS011;6214;48.012;7.862;2022-10-12T07:07:57;16.20;;;7.40;;
12302;SDS011;6214;48.012;7.862;2022-10-12T07:10:24;16.90;;;7.05;;
12302;SDS011;6214;48.012;7.862;2022-10-12T07:12:51;16.80;;;7.20;;
12302;SDS011;6214;48.012;7.862;2022-10-12T07:15:18;17.10;;;7.57;;
12302;SDS011;6214;48.012;7.862;2022-10-12T07:17:45;16.47;;;7.27;;
12302;SDS011;6214;48.012;7.862;2022-10-12T07:20:12;17.05;;;7.45;;
12302;SDS011;6214;48.012;7.862;2022-10-12T07:22:38;16.02;;;7.35;;
12302;SDS011;6214;48.012;7.862;2022-10-12T07:25:05;16.73;;;7.28;;
12302;SDS011;6214;48.012;7.862;2022-10-12T07:27:33;17.48;;;7.40;;
12302;SDS011;6214;48.012;7.862;2022-10-12T07:29:59;15.90;;;7.00;;
12302;SDS011;6214;48.012;7.862;2022-10-12T07:32:27;18.10;;;7.43;;
12302;SDS011;6214;48.012;7.862;2022-10-12T07:34:54;15.82;;;7.40;;
12302;SDS011;6214;48.012;7.862;2022-10-12T07:37:20;17.40;;;8.03;;
12302;SDS011;6214;48.012;7.862;2022-10-12T07:39:47;17.95;;;7.40;;
12302;SDS011;6214;48.012;7.862;2022-10-12T07:42:15;16.05;;;7.90;;
12302;SDS011;6214;48.012;7.862;2022-10-12T07:44:44;17.20;;;7.77;;
12302;SDS011;6214;48.012;7.862;2022-10-12T07:47:11;17.45;;;7.80;;
12302;SDS011;6214;48.012;7.862;2022-10-12T07:49:38;16.50;;;7.38;;
12302;SDS011;6214;48.012;7.862;2022-10-12T07:52:05;16.95;;;7.80;;
12302;SDS011;6214;48.012;7.862;2022-10-12T07:54:32;18.98;;;8.32;;
12302;SDS011;6214;48.012;7.862;2022-10-12T07:56:59;16.35;;;7.97;;
12302;SDS011;6214;48.012;7.862;2022-10-12T07:59:26;16.55;;;8.02;;
12302;SDS011;6214;48.012;7.862;2022-10-12T08:01:52;16.13;;;8.30;;
12302;SDS011;6214;48.012;7.862;2022-10-12T08:04:19;16.40;;;8.20;;
12302;SDS011;6214;48.012;7.862;2022-10-12T08:06:46;17.15;;;8.70;;
12302;SDS011;6214;48.012;7.862;2022-10-12T08:09:13;16.77;;;7.97;;
12302;SDS011;6214;48.012;7.862;2022-10-12T08:11:40;16.52;;;8.02;;
12302;SDS011;6214;48.012;7.862;2022-10-12T08:14:11;17.80;;;8.65;;
12302;SDS011;6214;48.012;7.862;2022-10-12T08:16:42;16.50;;;7.73;;
12302;SDS011;6214;48.012;7.862;2022-10-12T08:19:10;15.70;;;7.50;;
12302;SDS011;6214;48.012;7.862;2022-10-12T08:21:37;18.52;;;8.07;;
12302;SDS011;6214;48.012;7.862;2022-10-12T08:24:04;17.33;;;8.38;;
12302;SDS011;6214;48.012;7.862;2022-10-12T08:26:31;18.42;;;7.90;;
12302;SDS011;6214;48.012;7.862;2022-10-12T08:29:00;17.40;;;8.55;;
12302;SDS011;6214;48.012;7.862;2022-10-12T08:31:27;17.45;;;7.80;;
12302;SDS011;6214;48.012;7.862;2022-10-12T08:33:55;17.20;;;7.80;;
12302;SDS011;6214;48.012;7.862;2022-10-12T08:36:23;17.40;;;7.45;;
12302;SDS011;6214;48.012;7.862;2022-10-12T08:38:50;16.85;;;7.20;;
12302;SDS011;6214;48.012;7.862;2022-10-12T08:46:28;17.65;;;6.60;;
12302;SDS011;6214;48.012;7.862;2022-10-12T08:49:13;15.35;;;6.90;;
12302;SDS011;6214;48.012;7.862;2022-10-12T08:54:42;14.68;;;6.60;;
12302;SDS011;6214;48.012;7.862;2022-10-12T08:57:15;16.35;;;7.40;;
12302;SDS011;6214;48.012;7.862;2022-10-12T08:59:43;16.40;;;6.93;;
12302;SDS011;6214;48.012;7.862;2022-10-12T09:02:25;16.30;;;7.30;;
12302;SDS011;6214;48.012;7.862;2022-10-12T09:05:16;16.70;;;6.82;;
12302;SDS011;6214;48.012;7.862;2022-10-12T09:07:49;17.08;;;6.60;;
12302;SDS011;6214;48.012;7.862;2022-10-12T09:10:25;15.77;;;6.85;;
12302;SDS011;6214;48.012;7.862;2022-10-12T09:16:18;15.30;;;6.40;;
12302;SDS011;6214;48.012;7.862;2022-10-12T09:18:53;14.90;;;6.22;;
12302;SDS011;6214;48.012;7.862;2022-10-12T09:21:24;15.38;;;6.78;;
12302;SDS011;6214;48.012;7.862;2022-10-12T09:23:54;15.38;;;6.65;;
12302;SDS011;6214;48.012;7.862;2022-10-12T09:26:30;17.77;;;6.78;;
12302;SDS011;6214;48.012;7.862;2022-10-12T09:29:01;15.13;;;5.80;;
12302;SDS011;6214;48.012;7.862;2022-10-12T09:34:25;15.80;;;6.30;;
12302;SDS011;6214;48.012;7.862;2022-10-12T09:36:52;14.90;;;6.32;;
12302;SDS011;6214;48.012;7.862;2022-10-12T09:39:22;14.35;;;6.57;;
12302;SDS011;6214;48.012;7.862;2022-10-12T09:41:55;15.02;;;5.80;;
12302;SDS011;6214;48.012;7.862;2022-10-12T09:47:25;15.98;;;6.30;;
12302;SDS011;6214;48.012;7.862;2022-10-12T09:49:55;15.00;;;6.30;;
12302;SDS011;6214;48.012;7.862;2022-10-12T09:52:45;15.85;;;6.15;;
12302;SDS011;6214;48.012;7.862;2022-10-12T09:57:42;14.82;;;5.55;;
12302;SDS011;6214;48.012;7.862;2022-10-12T10:02:55;15.82;;;6.85;;
12302;SDS011;6214;48.012;7.862;2022-10-12T10:10:58;16.00;;;6.75;;
12302;SDS011;6214;48.012;7.862;2022-10-12T10:13:28;15.40;;;6.30;;
12302;SDS011;6214;48.012;7.862;2022-10-12T10:16:04;15.70;;;6.32;;
12302;SDS011;6214;48.012;7.862;2022-10-12T10:18:34;16.00;;;7.03;;
12302;SDS011;6214;48.012;7.862;2022-10-12T10:21:04;19.17;;;7.53;;
12302;SDS011;6214;48.012;7.862;2022-10-12T10:26:16;18.00;;;7.30;;
12302;SDS011;6214;48.012;7.862;2022-10-12T10:28:45;17.95;;;7.43;;
12302;SDS011;6214;48.012;7.862;2022-10-12T10:33:42;16.80;;;7.75;;
12302;SDS011;6214;48.012;7.862;2022-10-12T10:41:52;16.45;;;7.78;;
12302;SDS011;6214;48.012;7.862;2022-10-12T10:46:56;15.90;;;7.85;;
12302;SDS011;6214;48.012;7.862;2022-10-12T10:49:32;17.00;;;7.90;;
12302;SDS011;6214;48.012;7.862;2022-10-12T10:52:03;18.50;;;8.10;;
12302;SDS011;6214;48.012;7.862;2022-10-12T10:54:33;17.08;;;8.00;;
12302;SDS011;6214;48.012;7.862;2022-10-12T10:57:05;16.40;;;7.60;;
12302;SDS011;6214;48.012;7.862;2022-10-12T11:04:52;15.60;;;7.32;;
12302;SDS011;6214;48.012;7.862;2022-10-12T11:07:34;18.08;;;8.07;;
12302;SDS011;6214;48.012;7.862;2022-10-12T11:10:55;18.80;;;7.90;;
12302;SDS011;6214;48.012;7.862;2022-10-12T11:13:09;18.60;;;7.30;;
12302;SDS011;6214;48.012;7.862;2022-10-12T11:16:05;16.20;;;6.30;;
12302;SDS011;6214;48.012;7.862;2022-10-12T11:18:47;18.05;;;7.00;;
12302;SDS011;6214;48.012;7.862;2022-10-12T11:24:19;17.83;;;7.03;;
12302;SDS011;6214;48.012;7.862;2022-10-12T11:27:03;18.33;;;7.80;;
12302;SDS011;6214;48.012;7.862;2022-10-12T11:29:40;16.58;;;6.90;;
12302;SDS011;6214;48.012;7.862;2022-10-12T11:34:58;17.80;;;7.70;;
12302;SDS011;6214;48.012;7.862;2022-10-12T11:38:12;17.08;;;7.10;;
12302;SDS011;6214;48.012;7.862;2022-10-12T11:40:26;17.50;;;6.70;;
12302;SDS011;6214;48.012;7.862;2022-10-12T11:43:39;17.88;;;7.40;;
12302;SDS011;6214;48.012;7.862;2022-10-12T11:46:17;15.48;;;6.60;;
12302;SDS011;6214;48.012;7.862;2022-10-12T11:48:53;16.38;;;5.78;;
12302;SDS011;6214;48.012;7.862;2022-10-12T11:51:25;16.55;;;6.47;;
12302;SDS011;6214;48.012;7.862;2022-10-12T11:59:39;18.50;;;6.57;;
12302;SDS011;6214;48.012;7.862;2022-10-12T12:02:22;16.50;;;6.57;;
12302;SDS011;6214;48.012;7.862;2022-10-12T12:04:54;16.17;;;6.53;;
12302;SDS011;6214;48.012;7.862;2022-10-12T12:23:24;15.75;;;5.97;;
12302;SDS011;6214;48.012;7.862;2022-10-12T12:26:04;17.20;;;6.53;;
12302;SDS011;6214;48.012;7.862;2022-10-12T12:28:31;16.92;;;5.85;;
12302;SDS011;6214;48.012;7.862;2022-10-12T12:31:00;17.60;;;5.90;;
12302;SDS011;6214;48.012;7.862;2022-10-12T12:33:32;17.35;;;5.75;;
12302;SDS011;6214;48.012;7.862;2022-10-12T12:36:02;15.75;;;5.50;;
12302;SDS011;6214;48.012;7.862;2022-10-12T12:41:11;15.00;;;5.80;;
12302;SDS011;6214;48.012;7.862;2022-10-12T12:46:12;18.58;;;6.30;;
12302;SDS011;6214;48.012;7.862;2022-10-12T12:51:13;15.40;;;5.20;;
12302;SDS011;6214;48.012;7.862;2022-10-12T12:54:05;16.98;;;5.72;;
12302;SDS011;6214;48.012;7.862;2022-10-12T13:14:04;18.13;;;6.45;;
12302;SDS011;6214;48.012;7.862;2022-10-12T13:19:37;17.15;;;5.90;;
12302;SDS011;6214;48.012;7.862;2022-10-12T13:22:07;16.88;;;5.90;;
12302;SDS011;6214;48.012;7.862;2022-10-12T13:24:45;15.05;;;5.72;;
12302;SDS011;6214;48.012;7.862;2022-10-12T13:29:56;16.33;;;5.70;;
12302;SDS011;6214;48.012;7.862;2022-10-12T13:35:09;16.80;;;7.18;;
12302;SDS011;6214;48.012;7.862;2022-10-12T13:37:40;19.38;;;7.00;;
12302;SDS011;6214;48.012;7.862;2022-10-12T13:40:29;16.08;;;6.15;;
12302;SDS011;6214;48.012;7.862;2022-10-12T13:42:54;17.63;;;6.35;;
12302;SDS011;6214;48.012;7.862;2022-10-12T13:45:21;17.02;;;6.57;;
12302;SDS011;6214;48.012;7.862;2022-10-12T13:47:48;16.85;;;6.30;;
12302;SDS011;6214;48.012;7.862;2022-10-12T13:50:16;14.67;;;6.20;;
12302;SDS011;6214;48.012;7.862;2022-10-12T13:52:50;18.40;;;6.85;;
12302;SDS011;6214;48.012;7.862;2022-10-12T13:55:25;23.40;;;7.07;;
12302;SDS011;6214;48.012;7.862;2022-10-12T13:57:52;20.03;;;6.63;;
12302;SDS011;6214;48.012;7.862;2022-10-12T14:00:20;18.35;;;6.43;;
12302;SDS011;6214;48.012;7.862;2022-10-12T14:05:28;18.27;;;6.63;;
12302;SDS011;6214;48.012;7.862;2022-10-12T14:08:09;15.82;;;6.40;;
12302;SDS011;6214;48.012;7.862;2022-10-12T14:10:42;18.40;;;7.60;;
12302;SDS011;6214;48.012;7.862;2022-10-12T14:13:13;16.73;;;6.57;;
12302;SDS011;6214;48.012;7.862;2022-10-12T14:15:43;18.70;;;7.30;;
12302;SDS011;6214;48.012;7.862;2022-10-12T14:21:16;16.63;;;6.40;;
12302;SDS011;6214;48.012;7.862;2022-10-12T14:23:52;18.90;;;6.80;;
12302;SDS011;6214;48.012;7.862;2022-10-12T14:28:51;18.23;;;6.60;;
12302;SDS011;6214;48.012;7.862;2022-10-12T14:31:44;17.30;;;5.90;;
12302;SDS011;6214;48.012;7.862;2022-10-12T14:39:34;16.97;;;6.57;;
12302;SDS011;6214;48.012;7.862;2022-10-12T14:42:16;17.10;;;6.20;;
12302;SDS011;6214;48.012;7.862;2022-10-12T14:44:49;17.90;;;6.00;;
12302;SDS011;6214;48.012;7.862;2022-10-12T14:49:48;19.10;;;6.00;;
12302;SDS011;6214;48.012;7.862;2022-10-12T14:54:52;17.92;;;5.88;;
12302;SDS011;6214;48.012;7.862;2022-10-12T14:57:24;16.48;;;6.50;;
12302;SDS011;6214;48.012;7.862;2022-10-12T14:59:53;19.57;;;6.80;;
12302;SDS011;6214;48.012;7.862;2022-10-12T15:02:27;17.88;;;6.30;;
12302;SDS011;6214;48.012;7.862;2022-10-12T15:04:56;16.80;;;6.40;;
12302;SDS011;6214;48.012;7.862;2022-10-12T15:07:24;18.05;;;6.60;;
12302;SDS011;6214;48.012;7.862;2022-10-12T15:09:56;18.08;;;6.22;;
12302;SDS011;6214;48.012;7.862;2022-10-12T15:12:23;16.67;;;6.07;;
12302;SDS011;6214;48.012;7.862;2022-10-12T15:14:53;16.95;;;5.60;;
12302;SDS011;6214;48.012;7.862;2022-10-12T15:17:21;17.55;;;5.90;;
12302;SDS011;6214;48.012;7.862;2022-10-12T15:19:49;16.63;;;6.03;;
12302;SDS011;6214;48.012;7.862;2022-10-12T15:22:18;19.63;;;6.22;;
12302;SDS011;6214;48.012;7.862;2022-10-12T15:24:47;16.95;;;6.70;;
12302;SDS011;6214;48.012;7.862;2022-10-12T15:27:15;19.67;;;6.70;;
12302;SDS011;6214;48.012;7.862;2022-10-12T15:29:41;18.48;;;7.90;;
12302;SDS011;6214;48.012;7.862;2022-10-12T15:32:09;16.52;;;6.20;;
12302;SDS011;6214;48.012;7.862;2022-10-12T15:34:37;17.83;;;6.50;;
12302;SDS011;6214;48.012;7.862;2022-10-12T15:37:04;16.55;;;6.00;;
12302;SDS011;6214;48.012;7.862;2022-10-12T15:39:34;16.83;;;6.03;;
12302;SDS011;6214;48.012;7.862;2022-10-12T15:42:02;15.95;;;6.05;;
12302;SDS011;6214;48.012;7.862;2022-10-12T15:44:29;18.80;;;6.20;;
12302;SDS011;6214;48.012;7.862;2022-10-12T15:46:56;17.52;;;6.20;;
12302;SDS011;6214;48.012;7.862;2022-10-12T15:49:25;16.98;;;5.93;;
12302;SDS011;6214;48.012;7.862;2022-10-12T15:51:52;17.00;;;5.97;;
12302;SDS011;6214;48.012;7.862;2022-10-12T15:54:20;17.35;;;5.90;;
12302;SDS011;6214;48.012;7.862;2022-10-12T15:56:47;17.40;;;6.05;;
12302;SDS011;6214;48.012;7.862;2022-10-12T15:59:14;18.40;;;6.55;;
12302;SDS011;6214;48.012;7.862;2022-10-12T16:01:41;17.17;;;6.67;;
12302;SDS011;6214;48.012;7.862;2022-10-12T16:04:08;17.03;;;5.73;;
12302;SDS011;6214;48.012;7.862;2022-10-12T16:06:39;18.05;;;5.90;;
12302;SDS011;6214;48.012;7.862;2022-10-12T16:09:06;17.35;;;6.25;;
12302;SDS011;6214;48.012;7.862;2022-10-12T16:11:33;15.10;;;5.90;;
12302;SDS011;6214;48.012;7.862;2022-10-12T16:14:00;17.27;;;5.90;;
12302;SDS011;6214;48.012;7.862;2022-10-12T16:16:27;16.27;;;5.80;;
12302;SDS011;6214;48.012;7.862;2022-10-12T16:18:56;17.63;;;5.90;;
12302;SDS011;6214;48.012;7.862;2022-10-12T16:21:23;15.13;;;5.20;;
12302;SDS011;6214;48.012;7.862;2022-10-12T16:23:50;19.08;;;6.13;;
12302;SDS011;6214;48.012;7.862;2022-10-12T16:26:17;16.75;;;5.70;;
12302;SDS011;6214;48.012;7.862;2022-10-12T16:28:44;16.00;;;5.90;;
12302;SDS011;6214;48.012;7.862;2022-10-12T16:31:12;16.50;;;5.22;;
12302;SDS011;6214;48.012;7.862;2022-10-12T16:33:41;17.02;;;6.10;;
12302;SDS011;6214;48.012;7.862;2022-10-12T16:36:12;16.27;;;6.00;;
12302;SDS011;6214;48.012;7.862;2022-10-12T16:38:41;16.65;;;5.85;;
12302;SDS011;6214;48.012;7.862;2022-10-12T16:41:12;18.58;;;6.20;;
12302;SDS011;6214;48.012;7.862;2022-10-12T16:43:41;17.23;;;5.90;;
12302;SDS011;6214;48.012;7.862;2022-10-12T16:46:08;17.98;;;6.30;;
12302;SDS011;6214;48.012;7.862;2022-10-12T16:48:35;16.38;;;5.50;;
12302;SDS011;6214;48.012;7.862;2022-10-12T16:51:06;16.08;;;5.20;;
12302;SDS011;6214;48.012;7.862;2022-10-12T16:53:34;16.73;;;5.30;;
12302;SDS011;6214;48.012;7.862;2022-10-12T16:56:02;16.27;;;5.05;;
12302;SDS011;6214;48.012;7.862;2022-10-12T16:58:30;16.77;;;5.78;;
12302;SDS011;6214;48.012;7.862;2022-10-12T17:00:57;16.08;;;5.50;;
12302;SDS011;6214;48.012;7.862;2022-10-12T17:03:23;15.80;;;5.60;;
12302;SDS011;6214;48.012;7.862;2022-10-12T17:05:57;16.90;;;5.72;;
12302;SDS011;6214;48.012;7.862;2022-10-12T17:08:25;18.38;;;6.10;;
12302;SDS011;6214;48.012;7.862;2022-10-12T17:10:52;19.20;;;6.57;;
12302;SDS011;6214;48.012;7.862;2022-10-12T17:13:19;16.30;;;6.35;;
12302;SDS011;6214;48.012;7.862;2022-10-12T17:15:45;16.35;;;5.80;;
12302;SDS011;6214;48.012;7.862;2022-10-12T17:18:12;18.87;;;6.10;;
12302;SDS011;6214;48.012;7.862;2022-10-12T17:20:39;15.50;;;6.15;;
12302;SDS011;6214;48.012;7.862;2022-10-12T17:23:06;17.38;;;6.38;;
12302;SDS011;6214;48.012;7.862;2022-10-12T17:25:33;15.48;;;5.95;;
12302;SDS011;6214;48.012;7.862;2022-10-12T17:28:00;15.52;;;6.50;;
12302;SDS011;6214;48.012;7.862;2022-10-12T17:30:27;15.15;;;6.35;;
12302;SDS011;6214;48.012;7.862;2022-10-12T17:32:54;16.50;;;7.43;;
12302;SDS011;6214;48.012;7.862;2022-10-12T17:35:20;18.73;;;7.70;;
12302;SDS011;6214;48.012;7.862;2022-10-12T17:37:47;17.43;;;7.00;;